createdAt,value
2018-08-09T00:00:28.523Z,12.43
2018-08-09T00:02:56.811Z,13.50
2018-08-09T00:05:25.058Z,12.77
2018-08-09T00:07:53.320Z,14.20
2018-08-09T00:10:21.626Z,15.90
2018-08-09T00:12:49.885Z,14.60
2018-08-09T00:15:18.180Z,14.40
2018-08-09T00:17:46.436Z,15.70
2018-08-09T00:20:14.698Z,13.27
2018-08-09T00:22:43.071Z,15.83
2018-08-09T00:25:11.269Z,13.50
2018-08-09T00:27:39.523Z,15.03
2018-08-09T00:30:08.042Z,14.77
2018-08-09T00:32:36.418Z,15.10
2018-08-09T00:35:04.710Z,18.17
2018-08-09T00:37:32.999Z,16.20
2018-08-09T00:40:01.226Z,17.43
2018-08-09T00:42:29.471Z,16.10
2018-08-09T00:44:57.699Z,17.03
2018-08-09T00:47:25.986Z,14.53
2018-08-09T00:49:54.251Z,13.40
2018-08-09T00:52:22.536Z,14.00
2018-08-09T00:54:50.754Z,15.60
2018-08-09T00:57:18.991Z,14.80
2018-08-09T00:59:47.251Z,13.50
2018-08-09T01:02:15.445Z,13.93
2018-08-09T01:04:43.694Z,13.17
2018-08-09T01:07:11.886Z,12.47
2018-08-09T01:09:40.115Z,12.40
2018-08-09T01:12:08.331Z,12.33
2018-08-09T01:14:39.534Z,14.30
2018-08-09T01:17:07.796Z,13.00
2018-08-09T01:19:36.030Z,12.03
2018-08-09T01:22:04.256Z,12.77
2018-08-09T01:24:32.472Z,12.70
2018-08-09T01:27:00.757Z,11.63
2018-08-09T01:29:29.024Z,11.90
2018-08-09T01:31:57.268Z,12.30
2018-08-09T01:34:25.474Z,12.63
2018-08-09T01:36:53.734Z,11.90
2018-08-09T01:39:21.938Z,12.50
2018-08-09T01:42:01.346Z,11.70
2018-08-09T01:44:29.544Z,11.63
2018-08-09T01:46:57.799Z,12.73
2018-08-09T01:49:25.996Z,13.00
2018-08-09T01:51:54.245Z,12.43
2018-08-09T01:54:22.481Z,12.00
2018-08-09T01:56:50.785Z,12.63
2018-08-09T01:59:19.053Z,12.50
2018-08-09T02:01:47.262Z,14.07
2018-08-09T02:04:15.510Z,13.83
2018-08-09T02:06:43.724Z,12.07
2018-08-09T02:09:16.183Z,13.17
2018-08-09T02:11:44.437Z,13.43
2018-08-09T02:14:12.742Z,13.47
2018-08-09T02:16:40.952Z,15.00
2018-08-09T02:19:09.186Z,14.83
2018-08-09T02:21:37.455Z,13.83
2018-08-09T02:24:05.725Z,14.70
2018-08-09T02:26:33.952Z,14.37
2018-08-09T02:29:02.196Z,15.00
2018-08-09T02:31:30.456Z,14.17
2018-08-09T02:33:58.731Z,18.03
2018-08-09T02:36:26.974Z,17.90
2018-08-09T02:38:55.227Z,14.20
2018-08-09T02:41:23.455Z,15.27
2018-08-09T02:43:51.675Z,13.77
2018-08-09T02:46:19.992Z,15.87
2018-08-09T02:48:48.162Z,13.57
2018-08-09T02:51:16.537Z,14.73
2018-08-09T02:53:44.738Z,15.20
2018-08-09T02:56:13.015Z,14.90
2018-08-09T02:58:41.202Z,14.60
2018-08-09T03:01:09.475Z,15.20
2018-08-09T03:03:37.754Z,13.00
2018-08-09T03:06:06.051Z,14.57
2018-08-09T03:08:34.327Z,16.13
2018-08-09T03:11:02.584Z,13.83
2018-08-09T03:13:30.782Z,14.80
2018-08-09T03:15:59.031Z,14.40
2018-08-09T03:18:27.303Z,14.97
2018-08-09T03:20:55.627Z,13.73
2018-08-09T03:23:23.851Z,13.73
2018-08-09T03:25:52.098Z,13.73
2018-08-09T03:28:20.376Z,12.80
2018-08-09T03:30:48.588Z,18.03
2018-08-09T03:33:16.870Z,28.20
2018-08-09T03:35:45.146Z,13.30
2018-08-09T03:38:13.435Z,14.87
2018-08-09T03:40:41.784Z,15.07
2018-08-09T03:43:09.974Z,12.73
2018-08-09T03:45:38.268Z,13.47
2018-08-09T03:48:06.558Z,13.30
2018-08-09T03:50:34.802Z,13.37
2018-08-09T03:53:03.050Z,13.30
2018-08-09T03:55:31.346Z,13.00
2018-08-09T03:57:59.543Z,12.97
2018-08-09T04:00:27.779Z,15.13
2018-08-09T04:02:56.015Z,12.20
2018-08-09T04:05:24.274Z,13.40
2018-08-09T04:07:52.545Z,12.93
2018-08-09T04:10:20.774Z,12.50
2018-08-09T04:12:49.093Z,13.10
2018-08-09T04:15:17.402Z,12.13
2018-08-09T04:17:45.695Z,13.17
2018-08-09T04:20:13.963Z,11.33
2018-08-09T04:22:42.511Z,12.53
2018-08-09T04:25:10.841Z,12.97
2018-08-09T04:27:39.396Z,11.77
2018-08-09T04:30:07.748Z,10.13
2018-08-09T04:32:35.993Z,11.40
2018-08-09T04:35:04.469Z,11.13
2018-08-09T04:37:32.695Z,10.13
2018-08-09T04:40:01.062Z,10.70
2018-08-09T04:42:29.329Z,10.20
2018-08-09T04:44:57.638Z,10.30
2018-08-09T04:47:25.945Z,9.23
2018-08-09T04:49:54.203Z,9.53
2018-08-09T04:52:22.478Z,10.80
2018-08-09T04:54:50.764Z,11.47
2018-08-09T04:57:19.054Z,9.77
2018-08-09T04:59:47.343Z,13.33
2018-08-09T05:02:15.597Z,9.87
2018-08-09T05:04:43.862Z,10.00
2018-08-09T05:07:18.471Z,9.63
2018-08-09T05:09:46.754Z,10.03
2018-08-09T05:12:15.069Z,9.80
2018-08-09T05:14:43.302Z,10.43
2018-08-09T05:17:11.593Z,9.60
2018-08-09T05:19:39.798Z,10.63
2018-08-09T05:22:08.098Z,10.40
2018-08-09T05:24:37.341Z,9.13
2018-08-09T05:27:05.566Z,10.03
2018-08-09T05:29:33.797Z,9.57
2018-08-09T05:32:01.994Z,9.87
2018-08-09T05:34:36.825Z,9.77
2018-08-09T05:37:05.206Z,10.63
2018-08-09T05:39:33.725Z,10.97
2018-08-09T05:42:01.986Z,10.23
2018-08-09T05:44:30.338Z,10.17
2018-08-09T05:46:58.581Z,13.20
2018-08-09T05:49:26.794Z,9.20
2018-08-09T05:51:55.060Z,8.67
2018-08-09T05:54:23.258Z,9.50
2018-08-09T05:56:51.641Z,9.17
2018-08-09T05:59:19.883Z,8.93
2018-08-09T06:01:48.167Z,8.17
2018-08-09T06:04:16.417Z,10.97
2018-08-09T06:06:44.651Z,8.53
2018-08-09T06:09:13.485Z,8.50
2018-08-09T06:11:42.046Z,9.00
2018-08-09T06:14:10.727Z,9.70
2018-08-09T06:16:39.245Z,7.53
2018-08-09T06:19:07.880Z,7.13
2018-08-09T06:21:36.103Z,7.03
2018-08-09T06:24:04.387Z,8.50
2018-08-09T06:26:32.667Z,6.00
2018-08-09T06:29:00.820Z,6.33
2018-08-09T06:31:28.997Z,7.07
2018-08-09T06:33:57.286Z,7.30
2018-08-09T06:36:26.069Z,7.30
2018-08-09T06:38:54.321Z,6.93
2018-08-09T06:41:22.647Z,6.27
2018-08-09T06:43:50.886Z,6.63
2018-08-09T06:46:19.140Z,7.40
2018-08-09T06:48:47.454Z,6.17
2018-08-09T06:51:15.776Z,7.40
2018-08-09T06:53:44.026Z,6.47
2018-08-09T06:56:12.315Z,7.33
2018-08-09T06:58:40.607Z,8.13
2018-08-09T07:01:08.838Z,7.10
2018-08-09T07:03:37.132Z,7.00
2018-08-09T07:06:05.411Z,7.40
2018-08-09T07:08:33.822Z,9.47
2018-08-09T07:11:02.116Z,7.20
2018-08-09T07:13:30.304Z,7.43
2018-08-09T07:15:58.514Z,7.07
2018-08-09T07:18:26.784Z,7.40
2018-08-09T07:20:55.068Z,7.90
2018-08-09T07:23:23.333Z,6.60
2018-08-09T07:25:51.662Z,6.57
2018-08-09T07:28:19.899Z,7.10
2018-08-09T07:30:48.239Z,8.63
2018-08-09T07:33:16.514Z,6.73
2018-08-09T07:35:44.792Z,7.03
2018-08-09T07:38:13.107Z,7.97
2018-08-09T07:40:41.302Z,6.90
2018-08-09T07:43:09.546Z,7.80
2018-08-09T07:45:37.802Z,7.27
2018-08-09T07:48:06.045Z,7.47
2018-08-09T07:50:34.312Z,6.73
2018-08-09T07:53:02.571Z,7.50
2018-08-09T07:55:30.817Z,7.37
2018-08-09T07:57:59.105Z,7.53
2018-08-09T08:00:27.600Z,7.67
2018-08-09T08:02:55.792Z,7.73
2018-08-09T08:05:24.095Z,6.80
2018-08-09T08:07:52.359Z,6.67
2018-08-09T08:10:20.575Z,6.97
2018-08-09T08:12:48.818Z,7.03
2018-08-09T08:15:17.094Z,5.87
2018-08-09T08:17:45.351Z,6.87
2018-08-09T08:20:13.690Z,7.60
2018-08-09T08:22:42.114Z,6.30
2018-08-09T08:25:10.354Z,6.67
2018-08-09T08:27:38.614Z,7.67
2018-08-09T08:30:09.495Z,6.80
2018-08-09T08:32:37.998Z,6.20
2018-08-09T08:35:06.515Z,6.20
2018-08-09T08:37:35.123Z,6.83
2018-08-09T08:40:03.383Z,6.93
2018-08-09T08:42:31.595Z,6.73
2018-08-09T08:44:59.876Z,6.73
2018-08-09T08:47:28.604Z,7.10
2018-08-09T08:49:56.778Z,6.50
2018-08-09T08:52:25.043Z,7.50
2018-08-09T08:54:53.275Z,6.53
2018-08-09T08:57:21.559Z,5.90
2018-08-09T08:59:49.931Z,7.10
2018-08-09T09:02:18.290Z,6.60
2018-08-09T09:04:46.490Z,6.73
2018-08-09T09:07:14.729Z,5.93
2018-08-09T09:09:43.003Z,6.37
2018-08-09T09:12:11.264Z,6.23
2018-08-09T09:14:39.482Z,5.90
2018-08-09T09:17:07.716Z,5.20
2018-08-09T09:19:35.990Z,5.63
2018-08-09T09:22:04.219Z,4.53
2018-08-09T09:24:32.496Z,5.30
2018-08-09T09:27:00.780Z,4.23
2018-08-09T09:29:29.038Z,4.30
2018-08-09T09:31:57.288Z,4.93
2018-08-09T09:34:25.542Z,4.53
2018-08-09T09:36:53.872Z,4.40
2018-08-09T09:39:22.146Z,4.43
2018-08-09T09:41:50.500Z,5.33
2018-08-09T09:44:18.731Z,4.27
2018-08-09T09:46:47.020Z,4.60
2018-08-09T09:49:15.321Z,4.57
2018-08-09T09:51:43.534Z,4.63
2018-08-09T09:54:11.823Z,4.60
2018-08-09T09:56:40.130Z,4.87
2018-08-09T09:59:08.430Z,5.07
2018-08-09T10:01:37.066Z,5.00
2018-08-09T10:04:06.134Z,4.67
2018-08-09T10:06:35.034Z,4.90
2018-08-09T10:09:04.847Z,5.10
2018-08-09T10:11:33.205Z,4.23
2018-08-09T10:14:01.438Z,4.37
2018-08-09T10:16:29.637Z,4.27
2018-08-09T10:18:57.890Z,5.60
2018-08-09T10:21:26.249Z,5.17
2018-08-09T10:23:55.015Z,4.60
2018-08-09T10:26:23.239Z,5.03
2018-08-09T10:28:52.192Z,5.37
2018-08-09T10:31:20.395Z,5.40
2018-08-09T10:33:48.633Z,6.53
2018-08-09T10:36:17.816Z,5.70
2018-08-09T10:38:46.054Z,5.23
2018-08-09T10:41:14.582Z,5.07
2018-08-09T10:43:42.830Z,5.00
2018-08-09T10:46:11.043Z,5.17
2018-08-09T10:48:39.255Z,5.30
2018-08-09T10:51:07.527Z,5.50
2018-08-09T10:53:35.771Z,4.87
2018-08-09T10:56:04.038Z,7.83
2018-08-09T10:58:32.265Z,5.20
2018-08-09T11:01:00.535Z,5.20
2018-08-09T11:03:28.771Z,5.17
2018-08-09T11:05:56.974Z,5.17
2018-08-09T11:08:25.223Z,5.47
2018-08-09T11:10:53.487Z,5.63
2018-08-09T11:13:21.785Z,4.93
2018-08-09T11:15:49.974Z,6.37
2018-08-09T11:18:18.226Z,5.50
2018-08-09T11:20:46.453Z,5.57
2018-08-09T11:23:14.680Z,5.03
2018-08-09T11:25:42.974Z,5.30
2018-08-09T11:28:17.571Z,5.10
2018-08-09T11:30:45.870Z,5.33
2018-08-09T11:33:14.092Z,6.30
2018-08-09T11:35:42.325Z,6.23
2018-08-09T11:38:10.659Z,5.20
2018-08-09T11:40:38.962Z,6.10
2018-08-09T11:43:07.253Z,6.03
2018-08-09T11:45:35.803Z,5.60
2018-08-09T11:48:06.885Z,6.03
2018-08-09T11:50:35.178Z,5.90
2018-08-09T11:53:03.455Z,7.23
2018-08-09T11:55:32.015Z,6.07
2018-08-09T11:58:00.247Z,7.17
2018-08-09T12:00:28.498Z,6.20
2018-08-09T12:02:56.928Z,8.53
2018-08-09T12:05:25.148Z,5.60
2018-08-09T12:07:53.471Z,6.00
2018-08-09T12:10:22.090Z,7.33
2018-08-09T12:12:50.353Z,6.20
2018-08-09T12:15:18.615Z,6.90
2018-08-09T12:17:53.343Z,6.60
2018-08-09T12:20:21.546Z,6.03
2018-08-09T12:22:49.800Z,5.73
2018-08-09T12:25:18.351Z,8.03
2018-08-09T12:27:46.566Z,6.40
2018-08-09T12:30:15.974Z,6.57
2018-08-09T12:32:44.735Z,5.70
2018-08-09T12:35:13.355Z,6.40
2018-08-09T12:37:42.657Z,5.60
2018-08-09T12:40:11.727Z,5.37
2018-08-09T12:42:40.430Z,6.87
2018-08-09T12:45:10.447Z,5.37
2018-08-09T12:47:39.230Z,5.23
2018-08-09T12:50:10.502Z,5.50
2018-08-09T12:52:39.320Z,5.33
2018-08-09T12:55:07.908Z,5.73
2018-08-09T12:57:36.238Z,6.87
2018-08-09T13:00:06.165Z,5.83
2018-08-09T13:02:34.373Z,6.20
2018-08-09T13:05:03.038Z,6.27
2018-08-09T13:07:31.497Z,6.03
2018-08-09T13:09:59.811Z,7.57
2018-08-09T13:12:28.119Z,7.70
2018-08-09T13:14:56.427Z,6.27
2018-08-09T13:17:24.918Z,6.80
2018-08-09T13:19:53.591Z,5.90
2018-08-09T13:22:21.954Z,6.63
2018-08-09T13:24:50.227Z,5.73
2018-08-09T13:27:18.527Z,5.73
2018-08-09T13:29:46.789Z,6.37
2018-08-09T13:32:15.115Z,7.53
2018-08-09T13:34:43.398Z,5.97
2018-08-09T13:37:11.669Z,5.77
2018-08-09T13:39:39.884Z,6.13
2018-08-09T13:42:08.143Z,6.70
2018-08-09T13:44:36.394Z,5.97
2018-08-09T13:47:04.634Z,6.13
2018-08-09T13:49:32.940Z,5.93
2018-08-09T13:52:01.163Z,5.17
2018-08-09T13:54:29.397Z,5.57
2018-08-09T13:56:57.742Z,5.53
2018-08-09T13:59:25.950Z,6.27
2018-08-09T14:01:54.148Z,5.90
2018-08-09T14:04:22.494Z,5.43
2018-08-09T14:06:50.879Z,7.37
2018-08-09T14:09:19.103Z,5.90
2018-08-09T14:11:47.438Z,5.70
2018-08-09T14:14:15.700Z,5.93
2018-08-09T14:16:43.929Z,6.17
2018-08-09T14:19:13.350Z,6.47
2018-08-09T14:21:41.592Z,5.50
2018-08-09T14:24:10.208Z,5.37
2018-08-09T14:26:38.527Z,5.23
2018-08-09T14:29:07.437Z,5.80
2018-08-09T14:31:35.831Z,5.23
2018-08-09T14:34:04.226Z,6.10
2018-08-09T14:36:32.494Z,6.20
2018-08-09T14:39:00.781Z,7.10
2018-08-09T14:41:29.037Z,5.73
2018-08-09T14:43:57.314Z,5.23
2018-08-09T14:46:25.655Z,5.80
2018-08-09T14:48:53.950Z,5.90
2018-08-09T14:51:22.142Z,6.03
2018-08-09T14:53:50.400Z,5.13
2018-08-09T14:56:18.706Z,5.73
2018-08-09T14:58:47.072Z,5.50
2018-08-09T15:01:15.349Z,6.10
2018-08-09T15:03:43.553Z,5.60
2018-08-09T15:06:11.854Z,5.80
2018-08-09T15:08:40.493Z,5.53
2018-08-09T15:11:08.721Z,6.07
2018-08-09T15:13:37.753Z,6.10
2018-08-09T15:16:06.199Z,6.10
2018-08-09T15:18:34.452Z,8.10
2018-08-09T15:21:02.743Z,5.83
2018-08-09T15:23:31.044Z,6.10
2018-08-09T15:25:59.457Z,7.77
2018-08-09T15:28:27.742Z,5.70
2018-08-09T15:30:56.256Z,5.93
2018-08-09T15:33:24.689Z,6.30
2018-08-09T15:35:52.966Z,7.30
2018-08-09T15:38:21.326Z,6.47
2018-08-09T15:40:49.469Z,7.43
2018-08-09T15:43:17.792Z,7.03
2018-08-09T15:45:46.001Z,7.20
2018-08-09T15:48:14.329Z,6.27
2018-08-09T15:50:42.647Z,6.60
2018-08-09T15:53:10.880Z,5.53
2018-08-09T15:55:39.120Z,7.20
2018-08-09T15:58:07.418Z,6.27
2018-08-09T16:00:35.622Z,7.13
2018-08-09T16:03:04.134Z,6.30
2018-08-09T16:05:32.387Z,6.40
2018-08-09T16:08:00.698Z,5.30
2018-08-09T16:10:28.943Z,5.97
2018-08-09T16:12:57.374Z,6.53
2018-08-09T16:15:25.596Z,6.57
2018-08-09T16:17:53.851Z,6.57
2018-08-09T16:20:22.104Z,9.10
2018-08-09T16:22:50.333Z,9.67
2018-08-09T16:25:19.280Z,8.60
2018-08-09T16:27:48.249Z,8.13
2018-08-09T16:30:19.079Z,9.00
2018-08-09T16:32:47.305Z,10.93
2018-08-09T16:35:15.630Z,8.60
2018-08-09T16:37:44.559Z,7.40
2018-08-09T16:40:14.685Z,6.23
2018-08-09T16:42:44.204Z,7.37
2018-08-09T16:45:13.993Z,10.63
2018-08-09T16:47:42.947Z,6.00
2018-08-09T16:50:13.270Z,5.90
2018-08-09T16:52:41.542Z,22.60
2018-08-09T16:55:11.555Z,8.60
2018-08-09T16:57:40.410Z,10.40
2018-08-09T17:00:10.751Z,28.60
2018-08-09T17:02:39.723Z,9.90
2018-08-09T17:05:10.831Z,21.90
2018-08-09T17:07:39.148Z,11.00
2018-08-09T17:10:08.363Z,11.57
2018-08-09T17:12:36.753Z,4.97
2018-08-09T17:15:07.514Z,5.00
2018-08-09T17:17:35.752Z,5.90
2018-08-09T17:20:08.309Z,4.47
2018-08-09T17:22:36.631Z,6.90
2018-08-09T17:25:05.351Z,6.80
2018-08-09T17:27:33.607Z,6.87
2018-08-09T17:30:01.976Z,6.33
2018-08-09T17:32:30.287Z,9.43
2018-08-09T17:34:58.726Z,6.93
2018-08-09T17:37:27.016Z,4.37
2018-08-09T17:39:56.010Z,6.00
2018-08-09T17:42:24.286Z,5.37
2018-08-09T17:44:52.599Z,6.00
2018-08-09T17:47:20.861Z,5.40
2018-08-09T17:49:49.807Z,7.93
2018-08-09T17:52:18.178Z,5.90
2018-08-09T17:54:46.392Z,9.77
2018-08-09T17:57:14.820Z,4.97
2018-08-09T17:59:43.101Z,3.80
2018-08-09T18:02:11.347Z,6.93
2018-08-09T18:04:39.692Z,5.80
2018-08-09T18:07:07.978Z,5.37
2018-08-09T18:09:36.173Z,5.00
2018-08-09T18:12:04.490Z,8.50
2018-08-09T18:14:32.907Z,10.63
2018-08-09T18:17:01.107Z,6.83
2018-08-09T18:19:29.349Z,8.00
2018-08-09T18:21:57.757Z,4.03
2018-08-09T18:24:28.990Z,6.60
2018-08-09T18:26:57.299Z,4.63
2018-08-09T18:29:25.598Z,5.63
2018-08-09T18:31:53.802Z,4.23
2018-08-09T18:34:22.122Z,5.70
2018-08-09T18:36:50.384Z,4.07
2018-08-09T18:39:18.701Z,3.80
2018-08-09T18:41:46.951Z,7.63
2018-08-09T18:44:15.207Z,5.50
2018-08-09T18:46:43.381Z,4.33
2018-08-09T18:49:11.563Z,4.60
2018-08-09T18:51:40.019Z,6.23
2018-08-09T18:54:08.665Z,5.00
2018-08-09T18:56:36.881Z,6.30
2018-08-09T18:59:05.077Z,5.30
2018-08-09T19:01:33.287Z,8.33
2018-08-09T19:04:01.535Z,5.40
2018-08-09T19:06:29.840Z,7.30
2018-08-09T19:08:59.543Z,6.50
2018-08-09T19:11:27.761Z,10.80
2018-08-09T19:13:56.018Z,6.80
2018-08-09T19:16:24.274Z,5.73
2018-08-09T19:18:59.190Z,4.87
2018-08-09T19:21:27.627Z,4.20
2018-08-09T19:23:55.825Z,3.20
2018-08-09T19:26:24.974Z,11.40
2018-08-09T19:28:53.312Z,5.33
2018-08-09T19:31:21.568Z,5.97
2018-08-09T19:33:49.914Z,6.70
2018-08-09T19:36:18.243Z,3.23
2018-08-09T19:38:46.600Z,3.20
2018-08-09T19:41:14.833Z,4.83
2018-08-09T19:43:43.371Z,3.50
2018-08-09T19:46:11.574Z,4.37
2018-08-09T19:48:39.808Z,5.47
2018-08-09T19:51:08.094Z,5.00
2018-08-09T19:53:36.311Z,3.43
2018-08-09T19:56:04.583Z,3.47
2018-08-09T19:58:32.799Z,8.10
2018-08-09T20:01:01.006Z,4.30
2018-08-09T20:03:29.257Z,4.80
2018-08-09T20:05:57.613Z,4.93
2018-08-09T20:08:25.778Z,4.87
2018-08-09T20:10:53.974Z,9.33
2018-08-09T20:13:22.226Z,6.83
2018-08-09T20:15:50.546Z,5.20
2018-08-09T20:18:18.791Z,6.60
2018-08-09T20:20:48.340Z,5.73
2018-08-09T20:23:16.699Z,4.13
2018-08-09T20:25:44.920Z,4.30
2018-08-09T20:28:13.151Z,5.30
2018-08-09T20:30:41.399Z,7.10
2018-08-09T20:33:09.662Z,4.93
2018-08-09T20:35:37.893Z,7.60
2018-08-09T20:38:06.271Z,4.60
2018-08-09T20:40:34.604Z,4.07
2018-08-09T20:43:02.842Z,4.53
2018-08-09T20:45:31.171Z,5.10
2018-08-09T20:47:59.480Z,5.60
2018-08-09T20:50:28.979Z,5.93
2018-08-09T20:52:57.314Z,6.57
2018-08-09T20:55:25.566Z,4.83
2018-08-09T20:57:54.592Z,4.67
2018-08-09T21:00:29.518Z,6.77
2018-08-09T21:02:58.902Z,3.53
2018-08-09T21:05:28.609Z,5.30
2018-08-09T21:07:57.060Z,6.10
2018-08-09T21:10:25.739Z,5.90
2018-08-09T21:12:53.969Z,3.60
2018-08-09T21:15:22.585Z,4.53
2018-08-09T21:17:50.852Z,5.13
2018-08-09T21:20:19.183Z,5.20
2018-08-09T21:22:48.322Z,5.23
2018-08-09T21:25:16.682Z,3.87
2018-08-09T21:27:45.456Z,3.23
2018-08-09T21:30:15.917Z,3.40
2018-08-09T21:32:44.521Z,4.13
2018-08-09T21:35:12.767Z,4.40
2018-08-09T21:37:41.729Z,5.63
2018-08-09T21:40:10.972Z,6.33
2018-08-09T21:42:39.294Z,5.63
2018-08-09T21:45:11.389Z,4.57
2018-08-09T21:47:39.648Z,4.60
2018-08-09T21:50:10.799Z,5.67
2018-08-09T21:52:39.173Z,3.83
2018-08-09T21:55:07.659Z,4.90
2018-08-09T21:57:36.090Z,4.83
2018-08-09T22:00:05.962Z,4.47
2018-08-09T22:02:34.209Z,4.90
2018-08-09T22:05:07.806Z,4.40
2018-08-09T22:07:41.527Z,5.83
2018-08-09T22:10:14.960Z,8.43
2018-08-09T22:12:48.534Z,4.30
2018-08-09T22:15:22.066Z,4.30
2018-08-09T22:17:55.586Z,3.70
2018-08-09T22:20:29.477Z,5.53
2018-08-09T22:22:57.747Z,4.30
2018-08-09T22:25:26.012Z,7.80
2018-08-09T22:27:54.307Z,6.30
2018-08-09T22:30:22.866Z,6.97
2018-08-09T22:32:51.110Z,4.53
2018-08-09T22:35:19.687Z,4.07
2018-08-09T22:37:47.918Z,5.23
2018-08-09T22:40:16.098Z,7.00
2018-08-09T22:42:44.318Z,5.03
2018-08-09T22:45:12.543Z,9.37
2018-08-09T22:47:40.758Z,7.30
2018-08-09T22:50:09.035Z,11.10
2018-08-09T22:52:37.259Z,6.17
2018-08-09T22:55:05.534Z,6.50
2018-08-09T22:57:33.779Z,5.40
2018-08-09T23:00:02.029Z,6.00
2018-08-09T23:02:30.260Z,5.10
2018-08-09T23:04:58.507Z,6.30
2018-08-09T23:07:26.767Z,5.50
2018-08-09T23:09:55.032Z,6.00
2018-08-09T23:12:23.314Z,6.00
2018-08-09T23:14:51.547Z,6.80
2018-08-09T23:17:19.763Z,7.80
2018-08-09T23:19:48.010Z,5.67
2018-08-09T23:22:19.667Z,4.67
2018-08-09T23:24:47.943Z,6.17
2018-08-09T23:27:16.188Z,22.07
2018-08-09T23:29:44.567Z,9.00
2018-08-09T23:32:12.815Z,8.70
2018-08-09T23:34:41.070Z,6.30
2018-08-09T23:37:09.298Z,6.57
2018-08-09T23:39:37.572Z,5.30
2018-08-09T23:42:05.895Z,5.60
2018-08-09T23:44:34.129Z,5.90
2018-08-09T23:47:02.396Z,8.13
2018-08-09T23:49:30.647Z,5.07
2018-08-09T23:51:58.918Z,6.27
2018-08-09T23:54:27.254Z,5.60
2018-08-09T23:56:55.514Z,5.60
2018-08-09T23:59:23.727Z,4.40
